LIPK/FRL METAR and TAF weather

Enter ICAO airport designator
Station Type Date Time Source
LIPK METAR 2019/08/09 15:50 UTC NOAA

LIPK 091550Z 09008KT CAVOK 31/21 Q1013


Station Type Date Time Source
LIPK Decoded METAR 2019/08/09 15:50 UTC NOAA

Forli, Italy (LIPK) 44-12N 012-04E 32M
Aug 09, 2019 - 11:50 AM EDT / 2019.08.09 1550 UTC
Wind: from the E (090 degrees) at 9 MPH (8 KT):0
Visibility: greater than 7 mile(s):0
Temperature: 87 F (31 C)
Dew Point: 69 F (21 C)
Relative Humidity: 55%
Pressure (altimeter): 29.91 in. Hg (1013 hPa)
ob: LIPK 091550Z 09008KT CAVOK 31/21 Q1013
cycle: 16

Station Type Date Time Source
LIPK TAF 2015/04/01 12:08 UTC NOAA

TAF LIPK 011301Z 0112/0212 30020G32KT CAVOK
BECMG 0115/0117 30012KT
BECMG 0117/0119 VRB05KT

Example: see airport list